Polar Endurance — WDG2085 — position and weather

sailwx.info

Track history (hours):
 
Tides and Currents Weather Stations Pressure Air Temp Water Temp Dewpoint Dewpoint Depression Visibility Wind Speed Wind Dir Waves Ship Positions

Polar Endurance

Owner: Dunlap Towing Co., LaConner, WA. More information available from US FCC via Universal Licensing System and Coast Guard Vessel Documentation Center.

Last reported at 2016-May-31 15:17 UTC. Time now 2016-May-31 16:07 UTC.
Position N 48°00' W 122°37'.

Length 37 m.

Type: Towing. MMSI: 303144000.

Date/timePositionNaut miles runAvg speedWind from/ knotsBaromVisibWave heightAir tempDewpointWater temp
2016-May-31 15:17N 48°00' W 122°37'28 7.5
2016-May-31 11:31N 48°12' W 123°16'8 7.8
2016-May-31 10:32N 48°12' W 123°27'8 8.5
2016-May-31 09:33N 48°12' W 123°40'48 9.4
2016-May-31 04:27N 48°28' W 124°49'910.0
2016-May-31 03:30N 48°29' W 125°03'910.0
2016-May-31 02:33N 48°32' W 125°16'10 9.5
2016-May-31 01:33N 48°36' W 125°29'1010.1
2016-May-31 00:33N 48°40' W 125°43'10 9.7
2016-May-30 23:33N 48°46' W 125°55'9 9.5
2016-May-30 22:33N 48°51' W 126°07'13 9.3
2016-May-30 21:12N 48°59' W 126°22'20 9.8
2016-May-30 19:06N 49°11' W 126°48'710.3
2016-May-30 18:25N 49°15' W 126°56'  
2016-May-27 03:30N 58°17' W 135°43'8 8.4
2016-May-27 02:33N 58°16' W 135°58'  
Track history (hours):
 
Tides and Currents Weather Stations Pressure Air Temp Water Temp Dewpoint Dewpoint Depression Visibility Wind Speed Wind Dir Waves Ship Positions

Polar Endurance

Owner: Dunlap Towing Co., LaConner, WA. More information available from US FCC via Universal Licensing System and Coast Guard Vessel Documentation Center.

Last reported at 2016-May-31 15:17 UTC. Time now 2016-May-31 16:07 UTC.
Position N 48°00' W 122°37'.

Length 37 m.

Type: Towing. MMSI: 303144000.

Date/timePositionNaut miles runAvg speedWind from/ knotsBaromVisibWave heightAir tempDewpointWater temp
2016-May-31 15:17N 48°00' W 122°37'28 7.5
2016-May-31 11:31N 48°12' W 123°16'8 7.8
2016-May-31 10:32N 48°12' W 123°27'8 8.5
2016-May-31 09:33N 48°12' W 123°40'48 9.4
2016-May-31 04:27N 48°28' W 124°49'910.0
2016-May-31 03:30N 48°29' W 125°03'910.0
2016-May-31 02:33N 48°32' W 125°16'10 9.5
2016-May-31 01:33N 48°36' W 125°29'1010.1
2016-May-31 00:33N 48°40' W 125°43'10 9.7
2016-May-30 23:33N 48°46' W 125°55'9 9.5
2016-May-30 22:33N 48°51' W 126°07'13 9.3
2016-May-30 21:12N 48°59' W 126°22'20 9.8
2016-May-30 19:06N 49°11' W 126°48'710.3
2016-May-30 18:25N 49°15' W 126°56'  
2016-May-27 03:30N 58°17' W 135°43'8 8.4
2016-May-27 02:33N 58°16' W 135°58'  

Dump ship's entire track history